| time (UTC) | temp F | wind direction | speed knots | gust knots | rain 1hr in | rain 24hr in | rain mn in | humidity % | barometer mb |
| 20260505193523 | 77 | 244 | 2.6 | 6.1 | 0.00 | 0.00 | 0.00 | 44 | 1011.7 |
| 20260505193025 | 77 | 253 | 0.0 | 7.0 | 0.00 | 0.00 | 0.00 | 46 | 1011.8 |
| 20260505192522 | 77 | 265 | 1.7 | 7.0 | 0.00 | 0.00 | 0.00 | 46 | 1011.9 |
| 20260505192022 | 77 | 175 | 0.9 | 6.1 | 0.00 | 0.00 | 0.00 | 48 | 1012.0 |
| 20260505191525 | 77 | 269 | 1.7 | 6.1 | 0.00 | 0.00 | 0.00 | 49 | 1012.1 |
| 20260505191021 | 77 | 244 | 0.9 | 5.2 | 0.00 | 0.00 | 0.00 | 48 | 1012.1 |
| 20260505190522 | 77 | 164 | 0.9 | 6.1 | 0.00 | 0.00 | 0.00 | 49 | 1012.1 |
| 20260505190022 | 78 | 248 | 1.7 | 7.0 | 0.00 | 0.00 | 0.00 | 48 | 1012.3 |
| 20260505185519 | 78 | 150 | 1.7 | 7.0 | 0.00 | 0.00 | 0.00 | 51 | 1012.3 |
| 20260505185018 | 77 | 200 | 0.9 | 9.6 | 0.00 | 0.00 | 0.00 | 49 | 1012.5 |
| 20260505184518 | 77 | 266 | 0.9 | 9.6 | 0.00 | 0.00 | 0.00 | 50 | 1012.6 |
| 20260505184018 | 77 | 175 | 1.7 | 10.4 | 0.00 | 0.00 | 0.00 | 49 | 1012.7 |
| 20260505183521 | 77 | 224 | 2.6 | 10.4 | 0.00 | 0.00 | 0.00 | 50 | 1012.9 |
| 20260505183016 | 76 | 316 | 0.9 | 5.2 | 0.00 | 0.00 | 0.00 | 53 | 1012.9 |
| 20260505182515 | 76 | 217 | 1.7 | 7.0 | 0.00 | 0.00 | 0.00 | 50 | 1013.0 |
| 20260505182018 | 76 | 214 | 1.7 | 7.0 | 0.00 | 0.00 | 0.00 | 51 | 1013.1 |
| 20260505181515 | 76 | 254 | 1.7 | 7.0 | 0.00 | 0.00 | 0.00 | 53 | 1013.2 |
| 20260505181015 | 76 | 187 | 2.6 | 7.0 | 0.00 | 0.00 | 0.00 | 49 | 1013.3 |
| 20260505180514 | 76 | 235 | 1.7 | 7.8 | 0.00 | 0.00 | 0.00 | 50 | 1013.3 |
| 20260505180014 | 76 | 256 | 3.5 | 7.0 | 0.00 | 0.00 | 0.00 | 51 | 1013.3 |
| 20260505175514 | 77 | 225 | 1.7 | 8.7 | 0.00 | 0.00 | 0.00 | 50 | 1013.5 |
| 20260505175014 | 77 | 276 | 2.6 | 8.7 | 0.00 | 0.00 | 0.00 | 49 | 1013.6 |
| 20260505174522 | 77 | 277 | 2.6 | 7.8 | 0.00 | 0.00 | 0.00 | 48 | 1013.6 |
| 20260505174012 | 77 | 264 | 1.7 | 7.8 | 0.00 | 0.00 | 0.00 | 49 | 1013.7 |
| 20260505173513 | 76 | 270 | 3.5 | 7.8 | 0.00 | 0.00 | 0.00 | 49 | 1013.7 |
| 20260505173012 | 76 | 262 | 3.5 | 7.0 | 0.00 | 0.00 | 0.00 | 47 | 1013.6 |
| 20260505172514 | 76 | 215 | 2.6 | 7.8 | 0.00 | 0.00 | 0.00 | 47 | 1013.6 |
| 20260505172011 | 76 | 267 | 2.6 | 7.8 | 0.00 | 0.00 | 0.00 | 49 | 1013.9 |
| 20260505171517 | 75 | 185 | 0.9 | 7.0 | 0.00 | 0.00 | 0.00 | 48 | 1014.0 |
| 20260505171012 | 76 | 252 | 1.7 | 7.0 | 0.00 | 0.00 | 0.00 | 50 | 1014.1 |
| 20260505170511 | 76 | 260 | 3.5 | 7.0 | 0.00 | 0.00 | 0.00 | 48 | 1014.2 |
| 20260505170010 | 76 | 217 | 1.7 | 7.0 | 0.00 | 0.00 | 0.00 | 48 | 1014.2 |
| 20260505165510 | 77 | 163 | 1.7 | 6.1 | 0.00 | 0.00 | 0.00 | 49 | 1014.3 |
| 20260505165011 | 77 | 286 | 1.7 | 9.6 | 0.00 | 0.00 | 0.00 | 47 | 1014.4 |
| 20260505164508 | 76 | 224 | 2.6 | 9.6 | 0.00 | 0.00 | 0.00 | 49 | 1014.5 |
| 20260505164008 | 76 | 209 | 0.9 | 7.8 | 0.00 | 0.00 | 0.00 | 54 | 1014.6 |
| 20260505163508 | 76 | 177 | 2.6 | 6.1 | 0.00 | 0.00 | 0.00 | 47 | 1014.6 |
| 20260505163011 | 76 | 215 | 2.6 | 7.8 | 0.00 | 0.00 | 0.00 | 49 | 1014.6 |
| 20260505162507 | 76 | 313 | 1.7 | 10.4 | 0.00 | 0.00 | 0.00 | 52 | 1014.6 |
| 20260505162007 | 76 | 257 | 1.7 | 7.0 | 0.00 | 0.00 | 0.00 | 49 | 1014.7 |
| 20260505161507 | 76 | 250 | 0.9 | 7.0 | 0.00 | 0.00 | 0.00 | 51 | 1014.6 |
| 20260505161006 | 76 | 211 | 1.7 | 7.0 | 0.00 | 0.00 | 0.00 | 51 | 1014.6 |
| 20260505160508 | 76 | 154 | 0.9 | 6.1 | 0.00 | 0.00 | 0.00 | 50 | 1014.5 |
| 20260505153058 | 73 | 245 | 3.5 | 7.0 | 0.00 | 0.00 | 0.00 | 53 | 1014.6 |
| 20260505152555 | 73 | 187 | 0.9 | 5.2 | 0.00 | 0.00 | 0.00 | 59 | 1014.5 |
| 20260505152053 | 73 | 248 | 1.7 | 5.2 | 0.00 | 0.00 | 0.00 | 59 | 1014.7 |
| 20260505151559 | 72 | 245 | 0.0 | 6.1 | 0.00 | 0.00 | 0.00 | 61 | 1014.5 |
| 20260505151054 | 72 | 229 | 1.7 | 6.1 | 0.00 | 0.00 | 0.00 | 56 | 1014.4 |
| 20260505150550 | 71 | 281 | 0.9 | 4.3 | 0.00 | 0.00 | 0.00 | 61 | 1014.6 |
| 20260505140538 | 67 | 259 | 0.0 | 7.0 | 0.00 | 0.00 | 0.00 | 63 | 1014.8 |
| 20260505125018 | 56 | 224 | 0.0 | 0.9 | 0.00 | 0.00 | 0.00 | 81 | 1014.6 |
| 20260505124518 | 56 | 225 | 0.0 | 0.9 | 0.00 | 0.00 | 0.00 | 83 | 1014.6 |
| 20260505124016 | 55 | 223 | 0.0 | 0.0 | 0.00 | 0.00 | 0.00 | 85 | 1014.5 |
| 20260505123516 | 54 | 223 | 0.0 | 0.0 | 0.00 | 0.00 | 0.00 | 87 | 1014.6 |
| 20260505123017 | 54 | 223 | 0.0 | 0.0 | 0.00 | 0.00 | 0.00 | 87 | 1014.5 |
| 20260505122515 | 54 | 223 | 0.0 | 0.0 | 0.00 | 0.00 | 0.00 | 88 | 1014.5 |
| 20260505122018 | 53 | 223 | 0.0 | 0.0 | 0.00 | 0.00 | 0.00 | 89 | 1014.5 |
| 20260505121615 | 53 | 225 | 0.0 | 0.0 | 0.00 | 0.00 | 0.00 | 90 | 1014.5 |
| 20260505121015 | 52 | 225 | 0.0 | 0.0 | 0.00 | 0.00 | 0.00 | 91 | 1014.4 |
| 20260505120514 | 52 | 225 | 0.0 | 0.0 | 0.00 | 0.00 | 0.00 | 91 | 1014.5 |
| 20260505120014 | 51 | 225 | 0.0 | 0.0 | 0.00 | 0.00 | 0.00 | 91 | 1014.4 |
| 20260505115512 | 51 | 225 | 0.0 | 0.0 | 0.00 | 0.00 | 0.00 | 91 | 1014.5 |
| 20260505115011 | 50 | 225 | 0.0 | 0.0 | 0.00 | 0.00 | 0.00 | 90 | 1014.4 |
| 20260505114511 | 50 | 225 | 0.0 | 0.0 | 0.00 | 0.00 | 0.00 | 90 | 1014.3 |
| 20260505114010 | 50 | 225 | 0.0 | 0.0 | 0.00 | 0.00 | 0.00 | 90 | 1014.4 |
| 20260505113508 | 50 | 225 | 0.0 | 0.0 | 0.00 | 0.00 | 0.00 | 90 | 1014.2 |
| 20260505113007 | 50 | 225 | 0.0 | 0.0 | 0.00 | 0.00 | 0.00 | 90 | 1014.1 |
| 20260505112510 | 49 | 225 | 0.0 | 0.0 | 0.00 | 0.00 | 0.00 | 90 | 1014.0 |
| 20260505112006 | 49 | 225 | 0.0 | 0.0 | 0.00 | 0.00 | 0.00 | 90 | 1014.0 |
| 20260505111505 | 49 | 225 | 0.0 | 0.0 | 0.00 | 0.00 | 0.00 | 89 | 1013.7 |
| 20260505111005 | 49 | 225 | 0.0 | 0.0 | 0.00 | 0.00 | 0.00 | 89 | 1013.7 |
| 20260505110505 | 49 | 225 | 0.0 | 0.0 | 0.00 | 0.00 | 0.00 | 89 | 1013.6 |
| 20260505102100 | 50 | 225 | 0.0 | 0.0 | 0.00 | 0.00 | 0.00 | 87 | 1013.7 |
| 20260505101606 | 50 | 225 | 0.0 | 0.0 | 0.00 | 0.00 | 0.00 | 87 | 1013.7 |
| 20260505101059 | 50 | 225 | 0.0 | 0.0 | 0.00 | 0.00 | 0.00 | 87 | 1013.8 |
| 20260505100558 | 50 | 225 | 0.0 | 0.0 | 0.00 | 0.00 | 0.00 | 86 | 1013.8 |
| 20260505100058 | 50 | 225 | 0.0 | 0.0 | 0.00 | 0.00 | 0.00 | 86 | 1013.7 |
| 20260505095556 | 51 | 225 | 0.0 | 0.0 | 0.00 | 0.00 | 0.00 | 86 | 1013.7 |
| 20260505095057 | 51 | 225 | 0.0 | 0.0 | 0.00 | 0.00 | 0.00 | 86 | 1013.7 |
| 20260505094556 | 51 | 225 | 0.0 | 0.0 | 0.00 | 0.00 | 0.00 | 86 | 1013.7 |
| 20260505094056 | 51 | 225 | 0.0 | 0.0 | 0.00 | 0.00 | 0.00 | 86 | 1013.7 |
| 20260505093556 | 51 | 225 | 0.0 | 0.0 | 0.00 | 0.00 | 0.00 | 86 | 1013.7 |
| 20260505093055 | 51 | 225 | 0.0 | 0.0 | 0.00 | 0.00 | 0.00 | 85 | 1013.7 |
| 20260505092555 | 51 | 225 | 0.0 | 0.0 | 0.00 | 0.00 | 0.00 | 85 | 1013.7 |
| 20260505092053 | 51 | 225 | 0.0 | 0.0 | 0.00 | 0.00 | 0.00 | 85 | 1013.8 |
| 20260505091556 | 52 | 225 | 0.0 | 0.0 | 0.00 | 0.00 | 0.00 | 85 | 1013.7 |
| 20260505091052 | 52 | 225 | 0.0 | 0.0 | 0.00 | 0.00 | 0.00 | 85 | 1013.8 |
| 20260505090552 | 52 | 225 | 0.0 | 0.0 | 0.00 | 0.00 | 0.00 | 84 | 1013.6 |
| 20260505090051 | 52 | 225 | 0.0 | 0.0 | 0.00 | 0.00 | 0.00 | 84 | 1013.6 |
| 20260505085550 | 52 | 225 | 0.0 | 0.0 | 0.00 | 0.00 | 0.00 | 84 | 1013.5 |
| 20260505085050 | 52 | 225 | 0.0 | 0.0 | 0.00 | 0.00 | 0.00 | 83 | 1013.5 |
| 20260505084600 | 52 | 225 | 0.0 | 0.0 | 0.00 | 0.00 | 0.00 | 83 | 1013.5 |
| 20260505084054 | 52 | 225 | 0.0 | 0.0 | 0.00 | 0.00 | 0.00 | 83 | 1013.5 |
| 20260505083548 | 53 | 225 | 0.0 | 0.0 | 0.00 | 0.00 | 0.00 | 82 | 1013.4 |
| 20260505083058 | 53 | 225 | 0.0 | 0.0 | 0.00 | 0.00 | 0.00 | 83 | 1013.3 |
| 20260505082547 | 53 | 225 | 0.0 | 0.0 | 0.00 | 0.00 | 0.00 | 82 | 1013.3 |
| 20260505082046 | 53 | 225 | 0.0 | 0.0 | 0.00 | 0.00 | 0.00 | 81 | 1013.3 |
| 20260505081545 | 54 | 225 | 0.0 | 0.0 | 0.00 | 0.00 | 0.00 | 80 | 1013.2 |
| 20260505081044 | 54 | 225 | 0.0 | 0.0 | 0.00 | 0.00 | 0.00 | 81 | 1013.3 |
| 20260505080545 | 54 | 225 | 0.0 | 0.0 | 0.00 | 0.00 | 0.00 | 80 | 1013.3 |
| 20260505080042 | 55 | 225 | 0.0 | 0.0 | 0.00 | 0.00 | 0.00 | 79 | 1013.3 |
| 20260505075543 | 55 | 225 | 0.0 | 0.0 | 0.00 | 0.00 | 0.00 | 79 | 1013.3 |
| 20260505075039 | 55 | 225 | 0.0 | 0.0 | 0.00 | 0.00 | 0.00 | 78 | 1013.3 |
| 20260505074539 | 56 | 225 | 0.0 | 0.0 | 0.00 | 0.00 | 0.00 | 78 | 1013.3 |
| 20260505074040 | 56 | 225 | 0.0 | 0.0 | 0.00 | 0.00 | 0.00 | 77 | 1013.2 |
| 20260505073541 | 56 | 225 | 0.0 | 0.0 | 0.00 | 0.00 | 0.00 | 76 | 1013.3 |
| 20260505073042 | 57 | 225 | 0.0 | 0.0 | 0.00 | 0.00 | 0.00 | 75 | 1013.3 |
| 20260505072539 | 57 | 225 | 0.0 | 0.9 | 0.00 | 0.00 | 0.00 | 74 | 1013.4 |
| 20260505072043 | 58 | 225 | 0.0 | 1.7 | 0.00 | 0.00 | 0.00 | 73 | 1013.4 |
| 20260505071538 | 58 | 227 | 0.0 | 2.6 | 0.00 | 0.00 | 0.00 | 73 | 1013.5 |
| 20260505071038 | 58 | 237 | 0.0 | 1.7 | 0.00 | 0.00 | 0.00 | 72 | 1013.5 |
| 20260505070538 | 58 | 232 | 0.0 | 3.5 | 0.00 | 0.00 | 0.00 | 73 | 1013.5 |
| 20260505070038 | 58 | 225 | 0.0 | 2.6 | 0.00 | 0.00 | 0.00 | 71 | 1013.4 |
| 20260505065537 | 58 | 227 | 0.0 | 4.3 | 0.00 | 0.00 | 0.00 | 71 | 1013.5 |
| 20260505065036 | 58 | 238 | 0.0 | 4.3 | 0.00 | 0.00 | 0.00 | 72 | 1013.5 |
| 20260505064554 | 58 | 250 | 0.0 | 1.7 | 0.00 | 0.00 | 0.00 | 72 | 1013.5 |
| 20260505064037 | 58 | 231 | 0.0 | 5.2 | 0.00 | 0.00 | 0.00 | 72 | 1013.4 |
| 20260505063538 | 58 | 211 | 0.9 | 5.2 | 0.00 | 0.00 | 0.00 | 72 | 1013.3 |
| 20260505063036 | 58 | 258 | 0.9 | 5.2 | 0.00 | 0.00 | 0.00 | 73 | 1013.3 |
| 20260505062537 | 57 | 238 | 0.9 | 5.2 | 0.00 | 0.00 | 0.00 | 74 | 1013.3 |
| 20260505062035 | 57 | 247 | 0.9 | 2.6 | 0.00 | 0.00 | 0.00 | 76 | 1013.4 |
| 20260505061535 | 57 | 264 | 0.9 | 5.2 | 0.00 | 0.00 | 0.00 | 75 | 1013.4 |
| 20260505061036 | 57 | 200 | 0.9 | 5.2 | 0.00 | 0.00 | 0.00 | 76 | 1013.4 |
| 20260505060535 | 56 | 198 | 0.0 | 6.1 | 0.00 | 0.00 | 0.00 | 77 | 1013.4 |
| 20260505060134 | 56 | 233 | 0.9 | 6.1 | 0.00 | 0.00 | 0.00 | 77 | 1013.3 |
| 20260505055535 | 56 | 251 | 0.0 | 0.9 | 0.00 | 0.00 | 0.00 | 79 | 1013.4 |
| 20260505055033 | 56 | 251 | 0.0 | 1.7 | 0.00 | 0.00 | 0.00 | 79 | 1013.4 |
| 20260505054545 | 56 | 248 | 0.0 | 0.9 | 0.00 | 0.00 | 0.00 | 79 | 1013.3 |
| 20260505054032 | 56 | 250 | 0.0 | 1.7 | 0.00 | 0.00 | 0.00 | 78 | 1013.4 |
| 20260505053531 | 56 | 250 | 0.0 | 1.7 | 0.00 | 0.00 | 0.00 | 78 | 1013.3 |
| 20260505053030 | 57 | 217 | 0.0 | 0.0 | 0.00 | 0.00 | 0.00 | 78 | 1013.3 |
| 20260505052529 | 57 | 217 | 0.0 | 0.0 | 0.00 | 0.00 | 0.00 | 77 | 1013.2 |
| 20260505052029 | 57 | 217 | 0.0 | 0.0 | 0.00 | 0.00 | 0.00 | 77 | 1013.1 |
| 20260505051527 | 57 | 217 | 0.0 | 0.0 | 0.00 | 0.00 | 0.00 | 77 | 1013.0 |
| 20260505051027 | 58 | 217 | 0.0 | 0.0 | 0.00 | 0.00 | 0.00 | 76 | 1013.1 |
| 20260505050527 | 58 | 217 | 0.0 | 0.0 | 0.00 | 0.00 | 0.00 | 76 | 1013.3 |
| 20260505041519 | 59 | 247 | 0.0 | 1.7 | 0.00 | 0.00 | 0.00 | 74 | 1013.3 |
| 20260505041020 | 59 | 256 | 0.0 | 1.7 | 0.00 | 0.00 | 0.00 | 74 | 1013.3 |
| 20260505040519 | 59 | 257 | 0.0 | 0.9 | 0.00 | 0.00 | 0.00 | 74 | 1013.2 |
| 20260505040018 | 59 | 257 | 0.0 | 1.7 | 0.00 | 0.00 | 0.00 | 73 | 1013.2 |
| 20260505035516 | 59 | 267 | 0.0 | 1.7 | 0.00 | 0.00 | 0.00 | 73 | 1013.2 |
| 20260505035016 | 59 | 292 | 0.0 | 0.9 | 0.00 | 0.00 | 0.00 | 72 | 1013.2 |
| 20260505034525 | 60 | 292 | 0.0 | 0.9 | 0.00 | 0.00 | 0.00 | 73 | 1013.2 |
| 20260505034016 | 60 | 292 | 0.0 | 0.0 | 0.00 | 0.00 | 0.00 | 71 | 1013.1 |
| 20260505033516 | 60 | 292 | 0.0 | 0.0 | 0.00 | 0.00 | 0.00 | 71 | 1013.2 |
| 20260505033016 | 61 | 292 | 0.0 | 0.0 | 0.00 | 0.00 | 0.00 | 70 | 1013.0 |
| 20260505032516 | 61 | 292 | 0.0 | 0.0 | 0.00 | 0.00 | 0.00 | 69 | 1013.1 |
| 20260505032016 | 61 | 292 | 0.0 | 0.0 | 0.00 | 0.00 | 0.00 | 69 | 1013.3 |
| 20260505031516 | 62 | 292 | 0.0 | 0.0 | 0.00 | 0.00 | 0.00 | 69 | 1013.3 |
| 20260505031015 | 62 | 292 | 0.0 | 0.0 | 0.00 | 0.00 | 0.00 | 67 | 1013.2 |
| 20260505030515 | 62 | 292 | 0.0 | 1.7 | 0.00 | 0.00 | 0.00 | 67 | 1013.2 |
| 20260505030035 | 62 | 293 | 0.0 | 1.7 | 0.00 | 0.00 | 0.00 | 66 | 1013.2 |
| 20260505025516 | 62 | 248 | 0.0 | 0.0 | 0.00 | 0.00 | 0.00 | 67 | 1013.3 |
| 20260505025016 | 63 | 248 | 0.0 | 0.0 | 0.00 | 0.00 | 0.00 | 66 | 1013.3 |
| 20260505024517 | 63 | 247 | 0.0 | 0.0 | 0.00 | 0.00 | 0.00 | 65 | 1013.9 |
| 20260505024015 | 63 | 247 | 0.0 | 0.0 | 0.00 | 0.00 | 0.00 | 64 | 1013.4 |
| 20260505023516 | 64 | 247 | 0.0 | 0.0 | 0.00 | 0.00 | 0.00 | 64 | 1013.4 |
| 20260505023014 | 64 | 247 | 0.0 | 0.0 | 0.00 | 0.00 | 0.00 | 63 | 1013.5 |
| 20260505022514 | 64 | 256 | 0.0 | 0.0 | 0.00 | 0.00 | 0.00 | 63 | 1013.5 |
| 20260505022014 | 65 | 253 | 0.0 | 2.6 | 0.00 | 0.00 | 0.00 | 62 | 1013.4 |
| 20260505021516 | 65 | 257 | 0.0 | 2.6 | 0.00 | 0.00 | 0.00 | 62 | 1013.4 |
| 20260505021015 | 65 | 239 | 0.0 | 2.6 | 0.00 | 0.00 | 0.00 | 62 | 1013.3 |
| 20260505020514 | 65 | 246 | 0.9 | 2.6 | 0.00 | 0.00 | 0.00 | 61 | 1013.3 |
| 20260505020013 | 65 | 258 | 0.0 | 5.2 | 0.00 | 0.00 | 0.00 | 61 | 1013.2 |
| 20260505015512 | 65 | 235 | 0.9 | 5.2 | 0.00 | 0.00 | 0.00 | 61 | 1013.1 |
| 20260505015012 | 65 | 240 | 0.9 | 4.3 | 0.00 | 0.00 | 0.00 | 61 | 1013.2 |
| 20260505014519 | 65 | 213 | 0.0 | 4.3 | 0.00 | 0.00 | 0.00 | 61 | 1013.1 |
| 20260505014012 | 66 | 241 | 0.9 | 3.5 | 0.00 | 0.00 | 0.00 | 62 | 1013.1 |
| 20260505013512 | 66 | 194 | 0.0 | 4.3 | 0.00 | 0.00 | 0.00 | 61 | 1012.9 |
| 20260505013018 | 66 | 218 | 0.9 | 5.2 | 0.00 | 0.00 | 0.00 | 60 | 1012.9 |
| 20260505012513 | 66 | 220 | 0.9 | 5.2 | 0.00 | 0.00 | 0.00 | 60 | 1012.9 |
| 20260505012012 | 66 | 240 | 0.0 | 3.5 | 0.00 | 0.00 | 0.00 | 60 | 1012.9 |
| 20260505011513 | 66 | 234 | 0.9 | 4.3 | 0.00 | 0.00 | 0.00 | 60 | 1012.9 |
| 20260505011011 | 66 | 252 | 0.9 | 4.3 | 0.00 | 0.00 | 0.00 | 59 | 1012.8 |
| 20260505010511 | 67 | 204 | 0.9 | 3.5 | 0.00 | 0.00 | 0.00 | 59 | 1012.8 |
| 20260505010011 | 67 | 220 | 0.9 | 3.5 | 0.00 | 0.00 | 0.00 | 58 | 1012.8 |
| 20260505005516 | 67 | 236 | 0.9 | 3.5 | 0.00 | 0.00 | 0.00 | 58 | 1012.8 |
| 20260505005011 | 67 | 215 | 0.0 | 3.5 | 0.00 | 0.00 | 0.00 | 58 | 1012.6 |
| 20260505004527 | 67 | 178 | 0.9 | 2.6 | 0.00 | 0.00 | 0.00 | 57 | 1012.6 |
| 20260505004010 | 68 | 217 | 0.0 | 2.6 | 0.00 | 0.00 | 0.00 | 56 | 1012.6 |
| 20260505003511 | 68 | 215 | 0.0 | 2.6 | 0.00 | 0.00 | 0.00 | 56 | 1012.5 |
| 20260505003010 | 68 | 207 | 0.0 | 1.7 | 0.00 | 0.00 | 0.00 | 55 | 1012.5 |
| 20260505002510 | 69 | 268 | 0.0 | 1.7 | 0.00 | 0.00 | 0.00 | 56 | 1012.4 |
| 20260505002010 | 69 | 271 | 0.0 | 2.6 | 0.00 | 0.00 | 0.00 | 55 | 1012.4 |
| 20260505001510 | 70 | 271 | 0.0 | 2.6 | 0.00 | 0.00 | 0.00 | 54 | 1012.5 |
| 20260505001010 | 70 | 233 | 0.0 | 1.7 | 0.00 | 0.00 | 0.00 | 53 | 1012.5 |
| 20260505000516 | 70 | 227 | 0.0 | 3.5 | 0.00 | 0.00 | 0.00 | 52 | 1012.4 |
| 20260505000015 | 71 | 260 | 0.9 | 4.3 | 0.00 | 0.00 | 0.00 | 51 | 1012.4 |
| 20260504235508 | 71 | 237 | 0.9 | 3.5 | 0.00 | 0.00 | 0.00 | 50 | 1012.3 |
| 20260504235008 | 71 | 220 | 0.9 | 5.2 | 0.00 | 0.00 | 0.00 | 50 | 1012.4 |
| 20260504234508 | 72 | 237 | 0.0 | 3.5 | 0.00 | 0.00 | 0.00 | 50 | 1012.4 |
| 20260504234008 | 72 | 228 | 0.9 | 5.2 | 0.00 | 0.00 | 0.00 | 50 | 1012.3 |
| 20260504233507 | 72 | 218 | 2.6 | 5.2 | 0.00 | 0.00 | 0.00 | 49 | 1012.3 |
| 20260504233008 | 73 | 224 | 0.0 | 3.5 | 0.00 | 0.00 | 0.00 | 49 | 1012.2 |
| 20260504232506 | 73 | 217 | 0.9 | 6.1 | 0.00 | 0.00 | 0.00 | 50 | 1012.2 |
| 20260504232005 | 73 | 264 | 1.7 | 5.2 | 0.00 | 0.00 | 0.00 | 48 | 1012.1 |
| 20260504231506 | 73 | 220 | 0.9 | 7.0 | 0.00 | 0.00 | 0.00 | 49 | 1012.1 |
| 20260504231008 | 73 | 227 | 1.7 | 7.8 | 0.00 | 0.00 | 0.00 | 47 | 1012.1 |
| 20260504230505 | 74 | 271 | 2.6 | 8.7 | 0.00 | 0.00 | 0.00 | 48 | 1012.1 |
| 20260504230005 | 74 | 204 | 1.7 | 10.4 | 0.00 | 0.00 | 0.00 | 48 | 1012.0 |
| 20260504225503 | 74 | 257 | 1.7 | 5.2 | 0.00 | 0.00 | 0.00 | 48 | 1012.1 |
| 20260504225003 | 74 | 290 | 0.9 | 7.0 | 0.00 | 0.00 | 0.00 | 50 | 1012.2 |
| 20260504224503 | 74 | 254 | 1.7 | 7.0 | 0.00 | 0.00 | 0.00 | 49 | 1012.2 |
| 20260504224005 | 74 | 288 | 0.9 | 3.5 | 0.00 | 0.00 | 0.00 | 50 | 1012.2 |
| 20260504223503 | 74 | 240 | 0.9 | 6.1 | 0.00 | 0.00 | 0.00 | 49 | 1012.2 |
| 20260504223002 | 74 | 246 | 1.7 | 7.0 | 0.00 | 0.00 | 0.00 | 48 | 1012.2 |
| 20260504222504 | 74 | 244 | 0.9 | 4.3 | 0.00 | 0.00 | 0.00 | 49 | 1012.3 |
| 20260504222005 | 75 | 229 | 0.9 | 7.8 | 0.00 | 0.00 | 0.00 | 49 | 1012.3 |
| 20260504221504 | 75 | 232 | 1.7 | 7.8 | 0.00 | 0.00 | 0.00 | 49 | 1012.3 |
| 20260504221002 | 75 | 213 | 2.6 | 7.0 | 0.00 | 0.00 | 0.00 | 48 | 1012.3 |
| 20260504220502 | 75 | 214 | 1.7 | 6.1 | 0.00 | 0.00 | 0.00 | 46 | 1012.4 |
| 20260504220001 | 75 | 231 | 2.6 | 6.1 | 0.00 | 0.00 | 0.00 | 47 | 1012.3 |
| 20260504215559 | 76 | 244 | 0.9 | 7.8 | 0.00 | 0.00 | 0.00 | 49 | 1012.4 |
| 20260504215100 | 76 | 241 | 1.7 | 7.8 | 0.00 | 0.00 | 0.00 | 46 | 1012.4 |
| 20260504214603 | 76 | 247 | 1.7 | 6.1 | 0.00 | 0.00 | 0.00 | 46 | 1012.5 |
| 20260504214058 | 77 | 261 | 0.9 | 6.1 | 0.00 | 0.00 | 0.00 | 45 | 1012.4 |
| 20260504213558 | 77 | 287 | 1.7 | 6.1 | 0.00 | 0.00 | 0.00 | 44 | 1012.4 |
| 20260504213102 | 78 | 161 | 2.6 | 6.1 | 0.00 | 0.00 | 0.00 | 44 | 1012.4 |
| 20260504212601 | 78 | 249 | 1.7 | 6.1 | 0.00 | 0.00 | 0.00 | 44 | 1012.5 |
| 20260504212102 | 78 | 121 | 0.9 | 6.1 | 0.00 | 0.00 | 0.00 | 43 | 1012.4 |
| 20260504211557 | 79 | 216 | 1.7 | 6.1 | 0.00 | 0.00 | 0.00 | 44 | 1012.5 |
| 20260504211057 | 79 | 273 | 0.9 | 4.3 | 0.00 | 0.00 | 0.00 | 43 | 1012.4 |
| 20260504210556 | 80 | 263 | 0.9 | 6.1 | 0.00 | 0.00 | 0.00 | 42 | 1012.5 |
| 20260504210056 | 80 | 252 | 2.6 | 6.1 | 0.00 | 0.00 | 0.00 | 41 | 1012.6 |
| 20260504205558 | 80 | 246 | 0.9 | 5.2 | 0.00 | 0.00 | 0.00 | 44 | 1012.6 |
| 20260504205055 | 80 | 236 | 0.9 | 7.8 | 0.00 | 0.00 | 0.00 | 42 | 1012.6 |
| 20260504204555 | 81 | 216 | 1.7 | 9.6 | 0.00 | 0.00 | 0.00 | 40 | 1012.6 |
| 20260504204054 | 81 | 271 | 3.5 | 9.6 | 0.00 | 0.00 | 0.00 | 38 | 1012.8 |
| 20260504203556 | 81 | 261 | 2.6 | 7.8 | 0.00 | 0.00 | 0.00 | 37 | 1012.8 |
| 20260504203053 | 81 | 236 | 1.7 | 7.8 | 0.00 | 0.00 | 0.00 | 42 | 1012.8 |
| 20260504202551 | 81 | 245 | 1.7 | 7.0 | 0.00 | 0.00 | 0.00 | 41 | 1012.9 |
| 20260504202051 | 81 | 261 | 0.9 | 4.3 | 0.00 | 0.00 | 0.00 | 42 | 1012.9 |
| 20260504201551 | 81 | 257 | 1.7 | 8.7 | 0.00 | 0.00 | 0.00 | 45 | 1013.0 |
| 20260504201049 | 80 | 266 | 1.7 | 5.2 | 0.00 | 0.00 | 0.00 | 47 | 1013.2 |
| 20260504200548 | 81 | 218 | 0.9 | 4.3 | 0.00 | 0.00 | 0.00 | 46 | 1013.2 |
| 20260504200048 | 81 | 242 | 1.7 | 3.5 | 0.00 | 0.00 | 0.00 | 48 | 1013.2 |
| 20260504195548 | 80 | 236 | 1.7 | 5.2 | 0.00 | 0.00 | 0.00 | 46 | 1013.4 |
| 20260504195044 | 80 | 269 | 0.9 | 5.2 | 0.00 | 0.00 | 0.00 | 48 | 1013.5 |
| 20260504194551 | 80 | 126 | 0.9 | 5.2 | 0.00 | 0.00 | 0.00 | 50 | 1013.6 |
| 20260504194043 | 80 | 316 | 0.9 | 5.2 | 0.00 | 0.00 | 0.00 | 45 | 1013.5 |